sensor_id;sensor_type;location;lat;lon;timestamp;temperature;humidity
70107;DHT22;57473;37.508;15.080;2022-12-18T00:01:41;13.30;99.90
70107;DHT22;57473;37.508;15.080;2022-12-18T00:04:18;13.30;99.90
70107;DHT22;57473;37.508;15.080;2022-12-18T00:06:47;13.30;99.90
70107;DHT22;57473;37.508;15.080;2022-12-18T00:09:14;13.30;99.90
70107;DHT22;57473;37.508;15.080;2022-12-18T00:11:42;13.30;99.90
70107;DHT22;57473;37.508;15.080;2022-12-18T00:14:12;13.30;99.90
70107;DHT22;57473;37.508;15.080;2022-12-18T00:16:42;13.30;99.90
70107;DHT22;57473;37.508;15.080;2022-12-18T00:19:10;13.30;99.90
70107;DHT22;57473;37.508;15.080;2022-12-18T00:21:38;13.40;99.90
70107;DHT22;57473;37.508;15.080;2022-12-18T00:24:06;13.40;99.90
70107;DHT22;57473;37.508;15.080;2022-12-18T00:26:34;13.50;99.90
70107;DHT22;57473;37.508;15.080;2022-12-18T00:29:09;13.50;99.90
70107;DHT22;57473;37.508;15.080;2022-12-18T00:31:37;13.50;99.90
70107;DHT22;57473;37.508;15.080;2022-12-18T00:34:05;13.50;99.90
70107;DHT22;57473;37.508;15.080;2022-12-18T00:36:34;13.50;99.90
70107;DHT22;57473;37.508;15.080;2022-12-18T00:39:04;13.50;99.90
70107;DHT22;57473;37.508;15.080;2022-12-18T00:41:32;13.50;99.90
70107;DHT22;57473;37.508;15.080;2022-12-18T00:44:18;13.50;99.90
70107;DHT22;57473;37.508;15.080;2022-12-18T00:46:47;13.50;99.90
70107;DHT22;57473;37.508;15.080;2022-12-18T00:49:17;13.60;99.90
70107;DHT22;57473;37.508;15.080;2022-12-18T00:51:46;13.60;99.90
70107;DHT22;57473;37.508;15.080;2022-12-18T00:54:14;13.60;99.90
70107;DHT22;57473;37.508;15.080;2022-12-18T00:56:41;13.70;99.90
70107;DHT22;57473;37.508;15.080;2022-12-18T00:59:16;13.70;99.90
70107;DHT22;57473;37.508;15.080;2022-12-18T01:01:44;13.70;99.90
70107;DHT22;57473;37.508;15.080;2022-12-18T01:04:12;13.60;99.90
70107;DHT22;57473;37.508;15.080;2022-12-18T01:06:40;13.60;99.90
70107;DHT22;57473;37.508;15.080;2022-12-18T01:09:07;13.50;99.90
70107;DHT22;57473;37.508;15.080;2022-12-18T01:11:36;13.50;99.90
70107;DHT22;57473;37.508;15.080;2022-12-18T01:14:04;13.50;99.90
70107;DHT22;57473;37.508;15.080;2022-12-18T01:16:31;13.40;99.90
70107;DHT22;57473;37.508;15.080;2022-12-18T01:18:59;13.40;99.90
70107;DHT22;57473;37.508;15.080;2022-12-18T01:21:27;13.40;99.90
70107;DHT22;57473;37.508;15.080;2022-12-18T01:23:56;13.40;99.90
70107;DHT22;57473;37.508;15.080;2022-12-18T01:26:24;13.30;99.90
70107;DHT22;57473;37.508;15.080;2022-12-18T01:28:54;13.30;99.90
70107;DHT22;57473;37.508;15.080;2022-12-18T01:31:25;13.20;99.90
70107;DHT22;57473;37.508;15.080;2022-12-18T01:33:54;13.20;99.90
70107;DHT22;57473;37.508;15.080;2022-12-18T01:36:28;13.20;99.90
70107;DHT22;57473;37.508;15.080;2022-12-18T01:38:58;13.10;99.90
70107;DHT22;57473;37.508;15.080;2022-12-18T01:41:28;13.10;99.90
70107;DHT22;57473;37.508;15.080;2022-12-18T01:49:53;13.10;99.90
70107;DHT22;57473;37.508;15.080;2022-12-18T01:52:22;13.00;99.90
70107;DHT22;57473;37.508;15.080;2022-12-18T01:54:51;13.00;99.90
70107;DHT22;57473;37.508;15.080;2022-12-18T01:57:20;13.00;99.90
70107;DHT22;57473;37.508;15.080;2022-12-18T01:59:50;12.90;99.90
70107;DHT22;57473;37.508;15.080;2022-12-18T02:02:20;12.90;99.90
70107;DHT22;57473;37.508;15.080;2022-12-18T02:04:48;12.90;99.90
70107;DHT22;57473;37.508;15.080;2022-12-18T02:07:29;12.80;99.90
70107;DHT22;57473;37.508;15.080;2022-12-18T02:10:25;12.80;99.90
70107;DHT22;57473;37.508;15.080;2022-12-18T02:18:31;12.60;99.90
70107;DHT22;57473;37.508;15.080;2022-12-18T02:21:09;12.60;99.90
70107;DHT22;57473;37.508;15.080;2022-12-18T02:23:56;12.60;99.90
70107;DHT22;57473;37.508;15.080;2022-12-18T02:29:18;12.60;99.90
70107;DHT22;57473;37.508;15.080;2022-12-18T02:31:52;12.60;99.90
70107;DHT22;57473;37.508;15.080;2022-12-18T02:34:23;12.50;99.90
70107;DHT22;57473;37.508;15.080;2022-12-18T02:36:54;12.50;99.90
70107;DHT22;57473;37.508;15.080;2022-12-18T02:39:24;12.40;99.90
70107;DHT22;57473;37.508;15.080;2022-12-18T02:42:02;12.40;99.90
70107;DHT22;57473;37.508;15.080;2022-12-18T02:44:44;12.50;99.90
70107;DHT22;57473;37.508;15.080;2022-12-18T02:47:19;12.50;99.90
70107;DHT22;57473;37.508;15.080;2022-12-18T02:56:11;12.40;99.90
70107;DHT22;57473;37.508;15.080;2022-12-18T03:04:15;12.30;99.90
70107;DHT22;57473;37.508;15.080;2022-12-18T03:06:48;12.30;99.90
70107;DHT22;57473;37.508;15.080;2022-12-18T03:09:45;12.20;99.90
70107;DHT22;57473;37.508;15.080;2022-12-18T03:12:20;12.20;99.90
70107;DHT22;57473;37.508;15.080;2022-12-18T03:15:01;12.20;99.90
70107;DHT22;57473;37.508;15.080;2022-12-18T03:17:32;12.20;99.90
70107;DHT22;57473;37.508;15.080;2022-12-18T03:20:07;12.20;99.90
70107;DHT22;57473;37.508;15.080;2022-12-18T03:22:38;12.20;99.90
70107;DHT22;57473;37.508;15.080;2022-12-18T03:25:09;12.10;99.90
70107;DHT22;57473;37.508;15.080;2022-12-18T03:27:43;12.10;99.90
70107;DHT22;57473;37.508;15.080;2022-12-18T03:30:16;12.10;99.90
70107;DHT22;57473;37.508;15.080;2022-12-18T03:35:53;12.10;99.90
70107;DHT22;57473;37.508;15.080;2022-12-18T03:38:22;12.10;99.90
70107;DHT22;57473;37.508;15.080;2022-12-18T03:43:55;12.10;99.90
70107;DHT22;57473;37.508;15.080;2022-12-18T03:49:23;12.00;99.90
70107;DHT22;57473;37.508;15.080;2022-12-18T03:52:04;12.00;99.90
70107;DHT22;57473;37.508;15.080;2022-12-18T03:54:33;12.00;99.90
70107;DHT22;57473;37.508;15.080;2022-12-18T03:57:20;12.00;99.90
70107;DHT22;57473;37.508;15.080;2022-12-18T03:59:57;12.00;99.90
70107;DHT22;57473;37.508;15.080;2022-12-18T04:02:51;12.00;99.90
70107;DHT22;57473;37.508;15.080;2022-12-18T04:05:27;12.00;99.90
70107;DHT22;57473;37.508;15.080;2022-12-18T04:07:57;12.10;99.90
70107;DHT22;57473;37.508;15.080;2022-12-18T04:10:26;12.10;99.90
70107;DHT22;57473;37.508;15.080;2022-12-18T04:12:58;12.10;99.90
70107;DHT22;57473;37.508;15.080;2022-12-18T04:15:26;12.10;99.90
70107;DHT22;57473;37.508;15.080;2022-12-18T04:17:55;12.10;99.90
70107;DHT22;57473;37.508;15.080;2022-12-18T04:20:24;12.10;99.90
70107;DHT22;57473;37.508;15.080;2022-12-18T04:22:52;12.00;99.90
70107;DHT22;57473;37.508;15.080;2022-12-18T04:25:21;12.00;99.90
70107;DHT22;57473;37.508;15.080;2022-12-18T04:28:03;11.90;99.90
70107;DHT22;57473;37.508;15.080;2022-12-18T04:30:31;11.90;99.90
70107;DHT22;57473;37.508;15.080;2022-12-18T04:32:59;11.90;99.90
70107;DHT22;57473;37.508;15.080;2022-12-18T04:35:28;11.90;99.90
70107;DHT22;57473;37.508;15.080;2022-12-18T04:37:55;11.90;99.90
70107;DHT22;57473;37.508;15.080;2022-12-18T04:40:23;11.90;99.90
70107;DHT22;57473;37.508;15.080;2022-12-18T04:42:51;12.00;99.90
70107;DHT22;57473;37.508;15.080;2022-12-18T04:45:18;11.90;99.90
70107;DHT22;57473;37.508;15.080;2022-12-18T04:47:45;11.90;99.90
70107;DHT22;57473;37.508;15.080;2022-12-18T04:50:13;11.90;99.90
70107;DHT22;57473;37.508;15.080;2022-12-18T04:52:40;11.90;99.90
70107;DHT22;57473;37.508;15.080;2022-12-18T04:55:08;11.90;99.90
70107;DHT22;57473;37.508;15.080;2022-12-18T04:57:35;11.90;99.90
70107;DHT22;57473;37.508;15.080;2022-12-18T05:00:03;11.90;99.90
70107;DHT22;57473;37.508;15.080;2022-12-18T05:02:30;11.90;99.90
70107;DHT22;57473;37.508;15.080;2022-12-18T05:04:58;11.90;99.90
70107;DHT22;57473;37.508;15.080;2022-12-18T05:07:25;11.90;99.90
70107;DHT22;57473;37.508;15.080;2022-12-18T05:09:53;11.90;99.90
70107;DHT22;57473;37.508;15.080;2022-12-18T05:12:25;11.90;99.90
70107;DHT22;57473;37.508;15.080;2022-12-18T05:14:52;12.00;99.90
70107;DHT22;57473;37.508;15.080;2022-12-18T05:17:20;12.00;99.90
70107;DHT22;57473;37.508;15.080;2022-12-18T05:19:47;11.90;99.90
70107;DHT22;57473;37.508;15.080;2022-12-18T05:22:14;11.90;99.90
70107;DHT22;57473;37.508;15.080;2022-12-18T05:24:42;11.80;99.90
70107;DHT22;57473;37.508;15.080;2022-12-18T05:27:09;11.80;99.90
70107;DHT22;57473;37.508;15.080;2022-12-18T05:29:36;11.80;99.90
70107;DHT22;57473;37.508;15.080;2022-12-18T05:32:04;11.70;99.90
70107;DHT22;57473;37.508;15.080;2022-12-18T05:34:34;11.70;99.90
70107;DHT22;57473;37.508;15.080;2022-12-18T05:37:01;11.80;99.90
70107;DHT22;57473;37.508;15.080;2022-12-18T05:39:29;11.70;99.90
70107;DHT22;57473;37.508;15.080;2022-12-18T05:41:56;11.70;99.90
70107;DHT22;57473;37.508;15.080;2022-12-18T05:44:24;11.70;99.90
70107;DHT22;57473;37.508;15.080;2022-12-18T05:46:51;11.70;99.90
70107;DHT22;57473;37.508;15.080;2022-12-18T05:49:18;11.70;99.90
70107;DHT22;57473;37.508;15.080;2022-12-18T05:51:46;11.70;99.90
70107;DHT22;57473;37.508;15.080;2022-12-18T05:54:13;11.70;99.90
70107;DHT22;57473;37.508;15.080;2022-12-18T05:56:40;11.70;99.90
70107;DHT22;57473;37.508;15.080;2022-12-18T05:59:14;11.60;99.90
70107;DHT22;57473;37.508;15.080;2022-12-18T06:01:41;11.70;99.90
70107;DHT22;57473;37.508;15.080;2022-12-18T06:04:10;11.60;99.90
70107;DHT22;57473;37.508;15.080;2022-12-18T06:06:37;11.60;99.90
70107;DHT22;57473;37.508;15.080;2022-12-18T06:09:05;11.70;99.90
70107;DHT22;57473;37.508;15.080;2022-12-18T06:11:37;11.60;99.90
70107;DHT22;57473;37.508;15.080;2022-12-18T06:14:05;11.70;99.90
70107;DHT22;57473;37.508;15.080;2022-12-18T06:16:33;11.70;99.90
70107;DHT22;57473;37.508;15.080;2022-12-18T06:19:02;11.70;99.90
70107;DHT22;57473;37.508;15.080;2022-12-18T06:21:31;11.70;99.90
70107;DHT22;57473;37.508;15.080;2022-12-18T06:24:00;11.70;99.90
70107;DHT22;57473;37.508;15.080;2022-12-18T06:26:27;11.70;99.90
70107;DHT22;57473;37.508;15.080;2022-12-18T06:28:55;11.80;99.90
70107;DHT22;57473;37.508;15.080;2022-12-18T06:31:22;11.80;99.90
70107;DHT22;57473;37.508;15.080;2022-12-18T06:33:50;11.80;99.90
70107;DHT22;57473;37.508;15.080;2022-12-18T06:36:18;11.80;99.90
70107;DHT22;57473;37.508;15.080;2022-12-18T06:38:45;11.80;99.90
70107;DHT22;57473;37.508;15.080;2022-12-18T06:41:15;11.80;99.90
70107;DHT22;57473;37.508;15.080;2022-12-18T06:43:43;11.90;99.90
70107;DHT22;57473;37.508;15.080;2022-12-18T06:46:11;11.90;99.90
70107;DHT22;57473;37.508;15.080;2022-12-18T06:48:39;11.90;99.90
70107;DHT22;57473;37.508;15.080;2022-12-18T06:51:06;11.90;99.90
70107;DHT22;57473;37.508;15.080;2022-12-18T06:53:34;12.00;99.90
70107;DHT22;57473;37.508;15.080;2022-12-18T06:56:06;12.00;99.90
70107;DHT22;57473;37.508;15.080;2022-12-18T06:58:40;12.00;99.90
70107;DHT22;57473;37.508;15.080;2022-12-18T07:01:09;12.10;99.90
70107;DHT22;57473;37.508;15.080;2022-12-18T07:03:39;12.20;98.50
70107;DHT22;57473;37.508;15.080;2022-12-18T07:06:20;12.20;97.80
70107;DHT22;57473;37.508;15.080;2022-12-18T07:08:48;12.30;96.30
70107;DHT22;57473;37.508;15.080;2022-12-18T07:11:16;12.40;95.30
70107;DHT22;57473;37.508;15.080;2022-12-18T07:13:45;12.50;94.70
70107;DHT22;57473;37.508;15.080;2022-12-18T07:18:50;12.80;91.90
70107;DHT22;57473;37.508;15.080;2022-12-18T07:21:19;12.90;91.20
70107;DHT22;57473;37.508;15.080;2022-12-18T07:23:46;13.10;90.30
70107;DHT22;57473;37.508;15.080;2022-12-18T07:26:17;13.20;88.70
70107;DHT22;57473;37.508;15.080;2022-12-18T07:28:45;13.30;87.50
70107;DHT22;57473;37.508;15.080;2022-12-18T07:31:30;13.50;86.10
70107;DHT22;57473;37.508;15.080;2022-12-18T07:33:58;13.70;85.10
70107;DHT22;57473;37.508;15.080;2022-12-18T07:36:31;13.80;83.60
70107;DHT22;57473;37.508;15.080;2022-12-18T07:38:58;14.00;84.10
70107;DHT22;57473;37.508;15.080;2022-12-18T07:41:26;14.20;83.30
70107;DHT22;57473;37.508;15.080;2022-12-18T07:43:54;14.30;82.70
70107;DHT22;57473;37.508;15.080;2022-12-18T07:46:22;14.50;79.90
70107;DHT22;57473;37.508;15.080;2022-12-18T07:48:51;14.60;79.60
70107;DHT22;57473;37.508;15.080;2022-12-18T07:51:20;14.90;78.90
70107;DHT22;57473;37.508;15.080;2022-12-18T07:53:48;15.00;78.00
70107;DHT22;57473;37.508;15.080;2022-12-18T07:56:19;15.20;77.20
70107;DHT22;57473;37.508;15.080;2022-12-18T07:58:57;15.30;76.20
70107;DHT22;57473;37.508;15.080;2022-12-18T08:01:24;15.50;73.80
70107;DHT22;57473;37.508;15.080;2022-12-18T08:03:52;15.60;71.00
70107;DHT22;57473;37.508;15.080;2022-12-18T08:06:20;15.70;73.00
70107;DHT22;57473;37.508;15.080;2022-12-18T08:08:54;15.80;74.90
70107;DHT22;57473;37.508;15.080;2022-12-18T08:11:23;15.80;77.70
70107;DHT22;57473;37.508;15.080;2022-12-18T08:13:51;15.90;79.30
70107;DHT22;57473;37.508;15.080;2022-12-18T08:16:19;15.90;79.50
70107;DHT22;57473;37.508;15.080;2022-12-18T08:18:47;15.90;79.90
70107;DHT22;57473;37.508;15.080;2022-12-18T08:21:17;15.80;81.50
70107;DHT22;57473;37.508;15.080;2022-12-18T08:23:47;15.80;82.60
70107;DHT22;57473;37.508;15.080;2022-12-18T08:26:17;15.70;83.50
70107;DHT22;57473;37.508;15.080;2022-12-18T08:28:45;15.60;84.30
70107;DHT22;57473;37.508;15.080;2022-12-18T08:31:13;15.60;85.60
70107;DHT22;57473;37.508;15.080;2022-12-18T08:33:42;15.70;85.80
70107;DHT22;57473;37.508;15.080;2022-12-18T08:36:10;15.80;86.10
70107;DHT22;57473;37.508;15.080;2022-12-18T08:38:37;15.90;85.80
70107;DHT22;57473;37.508;15.080;2022-12-18T08:41:07;16.00;86.10
70107;DHT22;57473;37.508;15.080;2022-12-18T08:43:35;16.10;86.10
70107;DHT22;57473;37.508;15.080;2022-12-18T08:46:23;16.20;85.90
70107;DHT22;57473;37.508;15.080;2022-12-18T08:48:52;16.40;84.70
70107;DHT22;57473;37.508;15.080;2022-12-18T08:51:20;16.40;83.10
70107;DHT22;57473;37.508;15.080;2022-12-18T08:53:48;16.50;83.10
70107;DHT22;57473;37.508;15.080;2022-12-18T08:56:16;16.60;83.30
70107;DHT22;57473;37.508;15.080;2022-12-18T08:58:46;16.60;82.40
70107;DHT22;57473;37.508;15.080;2022-12-18T09:01:13;16.70;82.20
70107;DHT22;57473;37.508;15.080;2022-12-18T09:03:41;16.80;81.10
70107;DHT22;57473;37.508;15.080;2022-12-18T09:06:14;16.90;80.30
70107;DHT22;57473;37.508;15.080;2022-12-18T09:08:43;17.00;78.90
70107;DHT22;57473;37.508;15.080;2022-12-18T09:11:30;17.00;77.70
70107;DHT22;57473;37.508;15.080;2022-12-18T09:13:59;17.10;76.80
70107;DHT22;57473;37.508;15.080;2022-12-18T09:16:28;17.10;77.00
70107;DHT22;57473;37.508;15.080;2022-12-18T09:18:59;17.20;76.20
70107;DHT22;57473;37.508;15.080;2022-12-18T09:21:34;17.30;76.00
70107;DHT22;57473;37.508;15.080;2022-12-18T09:24:03;17.50;74.10
70107;DHT22;57473;37.508;15.080;2022-12-18T09:26:35;17.60;75.10
70107;DHT22;57473;37.508;15.080;2022-12-18T09:29:03;17.70;75.20
70107;DHT22;57473;37.508;15.080;2022-12-18T09:31:30;17.80;75.70
70107;DHT22;57473;37.508;15.080;2022-12-18T09:33:57;17.80;74.20
70107;DHT22;57473;37.508;15.080;2022-12-18T09:36:25;17.90;73.30
70107;DHT22;57473;37.508;15.080;2022-12-18T09:38:52;18.00;71.10
70107;DHT22;57473;37.508;15.080;2022-12-18T09:41:50;18.00;70.10
70107;DHT22;57473;37.508;15.080;2022-12-18T09:44:40;18.10;70.50
70107;DHT22;57473;37.508;15.080;2022-12-18T09:47:18;18.20;71.20
70107;DHT22;57473;37.508;15.080;2022-12-18T09:50:03;18.30;69.20
70107;DHT22;57473;37.508;15.080;2022-12-18T09:52:39;18.40;69.90
70107;DHT22;57473;37.508;15.080;2022-12-18T09:55:14;18.50;67.20
70107;DHT22;57473;37.508;15.080;2022-12-18T09:57:59;18.60;62.50
70107;DHT22;57473;37.508;15.080;2022-12-18T10:00:29;18.70;58.80
70107;DHT22;57473;37.508;15.080;2022-12-18T10:03:11;18.80;63.20
70107;DHT22;57473;37.508;15.080;2022-12-18T10:08:37;18.90;57.00
70107;DHT22;57473;37.508;15.080;2022-12-18T10:14:05;19.00;55.80
70107;DHT22;57473;37.508;15.080;2022-12-18T10:17:02;19.10;56.30
70107;DHT22;57473;37.508;15.080;2022-12-18T10:19:55;19.20;56.10
70107;DHT22;57473;37.508;15.080;2022-12-18T10:25:17;19.30;55.70
70107;DHT22;57473;37.508;15.080;2022-12-18T10:27:46;19.30;55.40
70107;DHT22;57473;37.508;15.080;2022-12-18T10:30:20;19.40;54.80
70107;DHT22;57473;37.508;15.080;2022-12-18T10:32:48;19.40;54.10
70107;DHT22;57473;37.508;15.080;2022-12-18T10:35:35;19.40;54.50
70107;DHT22;57473;37.508;15.080;2022-12-18T10:38:06;19.40;54.30
70107;DHT22;57473;37.508;15.080;2022-12-18T10:40:52;19.50;54.80
70107;DHT22;57473;37.508;15.080;2022-12-18T10:43:28;19.50;55.00
70107;DHT22;57473;37.508;15.080;2022-12-18T10:51:07;19.60;56.60
70107;DHT22;57473;37.508;15.080;2022-12-18T10:53:41;19.80;56.20
70107;DHT22;57473;37.508;15.080;2022-12-18T10:56:10;19.90;56.20
70107;DHT22;57473;37.508;15.080;2022-12-18T10:58:38;20.20;54.80
70107;DHT22;57473;37.508;15.080;2022-12-18T11:01:13;20.30;54.90
70107;DHT22;57473;37.508;15.080;2022-12-18T11:03:46;20.40;54.60
70107;DHT22;57473;37.508;15.080;2022-12-18T11:06:17;20.60;54.10
70107;DHT22;57473;37.508;15.080;2022-12-18T11:09:01;20.90;52.60
70107;DHT22;57473;37.508;15.080;2022-12-18T11:11:39;21.10;52.70
70107;DHT22;57473;37.508;15.080;2022-12-18T11:14:14;21.50;51.70
70107;DHT22;57473;37.508;15.080;2022-12-18T11:16:48;21.70;50.60
70107;DHT22;57473;37.508;15.080;2022-12-18T11:19:37;21.80;50.30
70107;DHT22;57473;37.508;15.080;2022-12-18T11:22:21;21.90;50.80
70107;DHT22;57473;37.508;15.080;2022-12-18T11:25:03;22.20;49.40
70107;DHT22;57473;37.508;15.080;2022-12-18T11:27:55;22.30;48.80
70107;DHT22;57473;37.508;15.080;2022-12-18T11:30:29;22.20;48.80
70107;DHT22;57473;37.508;15.080;2022-12-18T11:33:08;22.60;49.30
70107;DHT22;57473;37.508;15.080;2022-12-18T11:36:02;23.20;47.00
70107;DHT22;57473;37.508;15.080;2022-12-18T11:38:41;23.70;46.10
70107;DHT22;57473;37.508;15.080;2022-12-18T11:41:29;23.80;45.60
70107;DHT22;57473;37.508;15.080;2022-12-18T11:44:26;23.60;46.20
70107;DHT22;57473;37.508;15.080;2022-12-18T11:47:21;23.50;46.40
70107;DHT22;57473;37.508;15.080;2022-12-18T11:49:53;23.60;46.30
70107;DHT22;57473;37.508;15.080;2022-12-18T11:52:25;24.10;45.50
70107;DHT22;57473;37.508;15.080;2022-12-18T11:54:59;24.00;45.20
70107;DHT22;57473;37.508;15.080;2022-12-18T11:57:39;23.90;45.60
70107;DHT22;57473;37.508;15.080;2022-12-18T12:00:18;23.80;45.50
70107;DHT22;57473;37.508;15.080;2022-12-18T12:22:10;24.00;42.90
70107;DHT22;57473;37.508;15.080;2022-12-18T12:39:17;23.80;46.60
70107;DHT22;57473;37.508;15.080;2022-12-18T12:41:46;23.00;49.90
70107;DHT22;57473;37.508;15.080;2022-12-18T12:44:44;22.30;53.50
70107;DHT22;57473;37.508;15.080;2022-12-18T12:47:26;22.10;55.40
70107;DHT22;57473;37.508;15.080;2022-12-18T12:49:57;22.00;56.70
70107;DHT22;57473;37.508;15.080;2022-12-18T12:55:00;21.60;58.90
70107;DHT22;57473;37.508;15.080;2022-12-18T12:57:59;21.50;59.80
70107;DHT22;57473;37.508;15.080;2022-12-18T13:00:53;21.10;62.70
70107;DHT22;57473;37.508;15.080;2022-12-18T13:06:16;20.40;66.30
70107;DHT22;57473;37.508;15.080;2022-12-18T13:08:56;20.10;67.10
70107;DHT22;57473;37.508;15.080;2022-12-18T13:14:39;19.90;68.60
70107;DHT22;57473;37.508;15.080;2022-12-18T13:20:08;19.60;69.70
70107;DHT22;57473;37.508;15.080;2022-12-18T13:22:45;19.60;69.70
70107;DHT22;57473;37.508;15.080;2022-12-18T13:25:33;19.60;69.70
70107;DHT22;57473;37.508;15.080;2022-12-18T13:28:11;19.50;69.20
70107;DHT22;57473;37.508;15.080;2022-12-18T13:30:50;19.40;69.40
70107;DHT22;57473;37.508;15.080;2022-12-18T13:36:29;19.30;71.40
70107;DHT22;57473;37.508;15.080;2022-12-18T13:39:40;19.30;71.70
70107;DHT22;57473;37.508;15.080;2022-12-18T13:44:59;19.30;73.40
70107;DHT22;57473;37.508;15.080;2022-12-18T13:47:38;19.30;74.30
70107;DHT22;57473;37.508;15.080;2022-12-18T13:50:31;19.20;75.20
70107;DHT22;57473;37.508;15.080;2022-12-18T13:53:04;19.10;76.60
70107;DHT22;57473;37.508;15.080;2022-12-18T13:55:32;19.10;77.20
70107;DHT22;57473;37.508;15.080;2022-12-18T13:58:04;19.10;77.60
70107;DHT22;57473;37.508;15.080;2022-12-18T14:00:31;19.00;78.40
70107;DHT22;57473;37.508;15.080;2022-12-18T14:03:00;18.90;79.00
70107;DHT22;57473;37.508;15.080;2022-12-18T14:05:30;18.90;78.70
70107;DHT22;57473;37.508;15.080;2022-12-18T14:08:14;18.90;77.70
70107;DHT22;57473;37.508;15.080;2022-12-18T14:10:44;18.90;76.90
70107;DHT22;57473;37.508;15.080;2022-12-18T14:13:24;18.90;75.60
70107;DHT22;57473;37.508;15.080;2022-12-18T14:15:56;18.90;72.30
70107;DHT22;57473;37.508;15.080;2022-12-18T14:21:05;18.90;72.20
70107;DHT22;57473;37.508;15.080;2022-12-18T14:23:40;18.90;74.00
70107;DHT22;57473;37.508;15.080;2022-12-18T14:26:27;18.90;75.20
70107;DHT22;57473;37.508;15.080;2022-12-18T14:28:58;18.80;75.70
70107;DHT22;57473;37.508;15.080;2022-12-18T14:31:30;18.80;75.60
70107;DHT22;57473;37.508;15.080;2022-12-18T14:34:26;18.80;74.30
70107;DHT22;57473;37.508;15.080;2022-12-18T14:36:54;18.80;74.40
70107;DHT22;57473;37.508;15.080;2022-12-18T14:39:25;18.70;74.10
70107;DHT22;57473;37.508;15.080;2022-12-18T14:41:53;18.70;74.70
70107;DHT22;57473;37.508;15.080;2022-12-18T14:44:20;18.60;75.00
70107;DHT22;57473;37.508;15.080;2022-12-18T14:46:49;18.60;75.20
70107;DHT22;57473;37.508;15.080;2022-12-18T14:49:32;18.50;75.10
70107;DHT22;57473;37.508;15.080;2022-12-18T14:52:06;18.50;75.40
70107;DHT22;57473;37.508;15.080;2022-12-18T14:54:46;18.40;76.20
70107;DHT22;57473;37.508;15.080;2022-12-18T14:59:45;18.30;77.10
70107;DHT22;57473;37.508;15.080;2022-12-18T15:04:41;18.20;78.50
70107;DHT22;57473;37.508;15.080;2022-12-18T15:07:12;18.20;79.10
70107;DHT22;57473;37.508;15.080;2022-12-18T15:13:07;18.00;80.00
70107;DHT22;57473;37.508;15.080;2022-12-18T15:18:13;17.90;81.40
70107;DHT22;57473;37.508;15.080;2022-12-18T15:20:56;17.90;82.20
70107;DHT22;57473;37.508;15.080;2022-12-18T15:23:31;17.80;83.50
70107;DHT22;57473;37.508;15.080;2022-12-18T15:26:08;17.70;84.20
70107;DHT22;57473;37.508;15.080;2022-12-18T15:28:56;17.60;85.00
70107;DHT22;57473;37.508;15.080;2022-12-18T15:31:31;17.60;86.00
70107;DHT22;57473;37.508;15.080;2022-12-18T15:34:12;17.50;87.60
70107;DHT22;57473;37.508;15.080;2022-12-18T15:36:40;17.40;88.60
70107;DHT22;57473;37.508;15.080;2022-12-18T15:39:11;17.40;89.60
70107;DHT22;57473;37.508;15.080;2022-12-18T15:41:39;17.40;90.90
70107;DHT22;57473;37.508;15.080;2022-12-18T15:44:24;17.30;91.50
70107;DHT22;57473;37.508;15.080;2022-12-18T15:46:52;17.30;92.50
70107;DHT22;57473;37.508;15.080;2022-12-18T15:49:20;17.20;92.90
70107;DHT22;57473;37.508;15.080;2022-12-18T15:51:54;17.20;93.80
70107;DHT22;57473;37.508;15.080;2022-12-18T15:54:23;17.10;94.10
70107;DHT22;57473;37.508;15.080;2022-12-18T15:57:12;17.10;95.20
70107;DHT22;57473;37.508;15.080;2022-12-18T15:59:55;17.10;95.60
70107;DHT22;57473;37.508;15.080;2022-12-18T16:02:26;17.00;95.80
70107;DHT22;57473;37.508;15.080;2022-12-18T16:04:59;17.00;95.90
70107;DHT22;57473;37.508;15.080;2022-12-18T16:07:26;17.00;96.40
70107;DHT22;57473;37.508;15.080;2022-12-18T16:09:56;16.90;96.70
70107;DHT22;57473;37.508;15.080;2022-12-18T16:12:28;16.80;97.00
70107;DHT22;57473;37.508;15.080;2022-12-18T16:14:55;16.80;97.40
70107;DHT22;57473;37.508;15.080;2022-12-18T16:17:23;16.80;97.70
70107;DHT22;57473;37.508;15.080;2022-12-18T16:19:53;16.80;98.00
70107;DHT22;57473;37.508;15.080;2022-12-18T16:22:27;16.70;98.10
70107;DHT22;57473;37.508;15.080;2022-12-18T16:24:56;16.70;98.50
70107;DHT22;57473;37.508;15.080;2022-12-18T16:27:24;16.70;98.80
70107;DHT22;57473;37.508;15.080;2022-12-18T16:29:52;16.60;98.90
70107;DHT22;57473;37.508;15.080;2022-12-18T16:32:20;16.60;98.90
70107;DHT22;57473;37.508;15.080;2022-12-18T16:34:49;16.60;99.10
70107;DHT22;57473;37.508;15.080;2022-12-18T16:37:19;16.60;98.90
70107;DHT22;57473;37.508;15.080;2022-12-18T16:39:49;16.50;99.00
70107;DHT22;57473;37.508;15.080;2022-12-18T16:42:19;16.50;98.90
70107;DHT22;57473;37.508;15.080;2022-12-18T16:44:49;16.50;99.10
70107;DHT22;57473;37.508;15.080;2022-12-18T16:47:17;16.50;98.70
70107;DHT22;57473;37.508;15.080;2022-12-18T16:49:46;16.50;98.60
70107;DHT22;57473;37.508;15.080;2022-12-18T16:52:16;16.40;98.70
70107;DHT22;57473;37.508;15.080;2022-12-18T16:54:44;16.40;99.10
70107;DHT22;57473;37.508;15.080;2022-12-18T16:57:17;16.40;99.10
70107;DHT22;57473;37.508;15.080;2022-12-18T16:59:45;16.40;99.40
70107;DHT22;57473;37.508;15.080;2022-12-18T17:02:23;16.30;99.60
70107;DHT22;57473;37.508;15.080;2022-12-18T17:04:57;16.30;99.90
70107;DHT22;57473;37.508;15.080;2022-12-18T17:07:26;16.30;99.90
70107;DHT22;57473;37.508;15.080;2022-12-18T17:09:54;16.30;99.90
70107;DHT22;57473;37.508;15.080;2022-12-18T17:12:22;16.30;99.90
70107;DHT22;57473;37.508;15.080;2022-12-18T17:14:50;16.30;99.90
70107;DHT22;57473;37.508;15.080;2022-12-18T17:17:17;16.20;99.90
70107;DHT22;57473;37.508;15.080;2022-12-18T17:19:49;16.20;99.90
70107;DHT22;57473;37.508;15.080;2022-12-18T17:22:20;16.20;99.90
70107;DHT22;57473;37.508;15.080;2022-12-18T17:24:49;16.20;99.90
70107;DHT22;57473;37.508;15.080;2022-12-18T17:27:16;16.10;99.90
70107;DHT22;57473;37.508;15.080;2022-12-18T17:29:44;16.10;99.90
70107;DHT22;57473;37.508;15.080;2022-12-18T17:32:15;16.10;99.90
70107;DHT22;57473;37.508;15.080;2022-12-18T17:34:43;16.10;99.90
70107;DHT22;57473;37.508;15.080;2022-12-18T17:37:11;16.00;99.90
70107;DHT22;57473;37.508;15.080;2022-12-18T17:39:39;16.00;99.90
70107;DHT22;57473;37.508;15.080;2022-12-18T17:42:08;16.00;99.90
70107;DHT22;57473;37.508;15.080;2022-12-18T17:44:42;16.00;99.90